createdAt,value
2023-02-11T00:01:34.476Z,2.85
2023-02-11T00:04:03.492Z,2.89
2023-02-11T00:06:33.608Z,2.93
2023-02-11T00:09:02.378Z,2.96
2023-02-11T00:11:31.328Z,2.99
2023-02-11T00:14:02.757Z,3.00
2023-02-11T00:16:32.493Z,3.02
2023-02-11T00:19:02.452Z,3.02
2023-02-11T00:21:31.285Z,3.03
2023-02-11T00:24:02.387Z,3.02
2023-02-11T00:26:35.128Z,3.01
2023-02-11T00:29:04.720Z,2.99
2023-02-11T00:31:33.604Z,3.02
2023-02-11T00:34:02.191Z,3.03
2023-02-11T00:36:31.357Z,2.99
2023-02-11T00:39:01.449Z,2.95
2023-02-11T00:41:30.055Z,2.95
2023-02-11T00:43:58.805Z,2.94
2023-02-11T00:46:27.441Z,3.01
2023-02-11T00:48:57.946Z,3.01
2023-02-11T00:51:28.178Z,3.00
2023-02-11T00:53:56.654Z,3.04
2023-02-11T00:56:25.305Z,3.08
2023-02-11T00:58:54.361Z,3.06
2023-02-11T01:01:22.972Z,3.07
2023-02-11T01:03:51.750Z,3.05
2023-02-11T01:06:20.496Z,3.08
2023-02-11T01:08:48.997Z,3.06
2023-02-11T01:11:20.933Z,3.05
2023-02-11T01:13:51.144Z,3.06
2023-02-11T01:16:20.748Z,3.00
2023-02-11T01:18:49.644Z,3.04
2023-02-11T01:21:18.179Z,3.03
2023-02-11T01:23:46.896Z,3.09
2023-02-11T01:26:15.586Z,3.13
2023-02-11T01:28:44.229Z,3.11
2023-02-11T01:31:12.768Z,3.14
2023-02-11T01:33:41.592Z,3.13
2023-02-11T01:36:10.601Z,3.19
2023-02-11T01:38:40.979Z,3.24
2023-02-11T01:41:14.629Z,3.30
2023-02-11T01:43:50.922Z,3.32
2023-02-11T01:46:25.021Z,3.46
2023-02-11T01:49:12.444Z,3.46
2023-02-11T01:51:48.494Z,3.51
2023-02-11T01:54:39.340Z,3.52
2023-02-11T01:57:25.089Z,3.58
2023-02-11T02:00:29.119Z,3.65
2023-02-11T02:03:07.624Z,3.72
2023-02-11T02:05:47.013Z,3.79
2023-02-11T02:08:29.941Z,3.84
2023-02-11T02:11:00.922Z,3.87
2023-02-11T02:13:34.830Z,3.85
2023-02-11T02:16:10.175Z,3.86
2023-02-11T02:18:41.567Z,3.86
2023-02-11T02:21:34.141Z,3.87
2023-02-11T02:24:34.693Z,3.89
2023-02-11T02:27:36.160Z,3.90
2023-02-11T02:30:31.921Z,3.97
2023-02-11T02:33:48.596Z,3.96
2023-02-11T02:36:33.188Z,3.96
2023-02-11T02:39:09.344Z,3.95
2023-02-11T02:41:39.171Z,3.95
2023-02-11T02:44:09.942Z,4.00
2023-02-11T02:46:38.949Z,4.04
2023-02-11T02:49:14.669Z,4.05
2023-02-11T02:52:01.290Z,4.09
2023-02-11T02:55:09.887Z,4.12
2023-02-11T02:57:50.493Z,4.13
2023-02-11T03:00:59.945Z,4.16
2023-02-11T03:03:37.374Z,4.18
2023-02-11T03:06:21.304Z,4.18
2023-02-11T03:09:11.153Z,4.20
2023-02-11T03:11:39.939Z,4.24
2023-02-11T03:14:12.349Z,4.26
2023-02-11T03:16:41.356Z,4.28
2023-02-11T03:19:19.866Z,4.27
2023-02-11T03:21:50.547Z,4.26
2023-02-11T03:24:34.745Z,4.26
2023-02-11T03:27:34.986Z,4.28
2023-02-11T03:30:15.060Z,4.32
2023-02-11T03:32:57.264Z,4.32
2023-02-11T03:35:54.651Z,4.32
2023-02-11T03:38:35.895Z,4.34
2023-02-11T03:41:07.795Z,4.37
2023-02-11T03:43:43.342Z,4.33
2023-02-11T03:46:15.919Z,4.33
2023-02-11T03:48:50.897Z,4.35
2023-02-11T03:51:19.596Z,4.39
2023-02-11T03:53:49.585Z,4.40
2023-02-11T03:56:23.096Z,4.43
2023-02-11T03:58:51.632Z,4.44
2023-02-11T04:01:20.138Z,4.47
2023-02-11T04:03:48.705Z,4.49
2023-02-11T04:06:17.134Z,4.53
2023-02-11T04:08:45.662Z,4.55
2023-02-11T04:11:14.084Z,4.65
2023-02-11T04:13:42.614Z,4.66
2023-02-11T04:16:11.123Z,4.65
2023-02-11T04:18:39.679Z,4.67
2023-02-11T04:21:08.157Z,4.68
2023-02-11T04:23:36.649Z,4.64
2023-02-11T04:26:05.317Z,4.68
2023-02-11T04:28:34.940Z,4.68
2023-02-11T04:31:03.769Z,4.71
2023-02-11T04:33:32.289Z,4.72
2023-02-11T04:36:00.751Z,4.69
2023-02-11T04:38:29.210Z,4.71
2023-02-11T04:41:00.573Z,4.71
2023-02-11T04:43:29.070Z,4.72
2023-02-11T04:46:00.377Z,4.75
2023-02-11T04:48:28.996Z,4.71
2023-02-11T04:50:57.358Z,4.74
2023-02-11T04:53:25.867Z,4.78
2023-02-11T04:55:54.332Z,4.81
2023-02-11T04:58:22.849Z,4.82
2023-02-11T05:00:53.739Z,4.87
2023-02-11T05:03:22.145Z,4.88
2023-02-11T05:05:51.389Z,4.86
2023-02-11T05:08:20.041Z,4.81
2023-02-11T05:10:48.973Z,4.83
2023-02-11T05:13:17.474Z,4.86
2023-02-11T05:15:46.071Z,4.83
2023-02-11T05:18:15.592Z,4.88
2023-02-11T05:20:44.981Z,4.83
2023-02-11T05:23:13.876Z,4.81
2023-02-11T05:25:42.277Z,4.88
2023-02-11T05:28:10.943Z,4.88
2023-02-11T05:30:39.431Z,4.84
2023-02-11T05:33:08.031Z,4.84
2023-02-11T05:35:36.778Z,4.83
2023-02-11T05:38:06.217Z,4.85
2023-02-11T05:40:37.051Z,4.80
2023-02-11T05:43:05.555Z,4.80
2023-02-11T05:45:34.340Z,4.81
2023-02-11T05:48:02.776Z,4.82
2023-02-11T05:50:31.231Z,4.82
2023-02-11T05:52:59.832Z,4.87
2023-02-11T05:55:28.401Z,4.87
2023-02-11T05:57:56.886Z,4.86
2023-02-11T06:00:25.753Z,4.84
2023-02-11T06:02:54.255Z,4.81
2023-02-11T06:05:22.843Z,4.84
2023-02-11T06:07:51.452Z,4.87
2023-02-11T06:10:20.191Z,4.89
2023-02-11T06:12:48.639Z,4.90
2023-02-11T06:15:23.080Z,4.85
2023-02-11T06:17:56.369Z,4.92
2023-02-11T06:20:24.986Z,4.86
2023-02-11T06:22:53.440Z,4.87
2023-02-11T06:25:24.774Z,4.86
2023-02-11T06:27:55.627Z,4.90
2023-02-11T06:30:24.558Z,4.88
2023-02-11T06:32:53.092Z,4.89
2023-02-11T06:35:21.535Z,4.93
2023-02-11T06:37:50.005Z,4.92
2023-02-11T06:40:18.585Z,4.90
2023-02-11T06:42:47.054Z,4.99
2023-02-11T06:45:15.484Z,4.99
2023-02-11T06:47:43.901Z,5.00
2023-02-11T06:50:15.578Z,5.00
2023-02-11T06:52:44.100Z,5.08
2023-02-11T06:55:12.551Z,5.10
2023-02-11T06:57:41.157Z,5.15
2023-02-11T07:00:10.250Z,5.15
2023-02-11T07:02:38.636Z,5.15
2023-02-11T07:05:08.830Z,5.19
2023-02-11T07:07:38.061Z,5.19
2023-02-11T07:10:06.980Z,5.25
2023-02-11T07:12:35.389Z,5.25
2023-02-11T07:15:03.971Z,5.26
2023-02-11T07:17:32.392Z,5.32
2023-02-11T07:20:00.886Z,5.32
2023-02-11T07:22:29.393Z,5.33
2023-02-11T07:24:57.790Z,5.30
2023-02-11T07:27:26.270Z,5.35
2023-02-11T07:29:54.685Z,5.41
2023-02-11T07:32:23.190Z,5.38
2023-02-11T07:34:51.740Z,5.39
2023-02-11T07:37:20.685Z,5.45
2023-02-11T07:39:49.142Z,5.43
2023-02-11T07:42:17.660Z,5.43
2023-02-11T07:44:50.229Z,5.38
2023-02-11T07:47:18.913Z,5.39
2023-02-11T07:49:47.744Z,5.37
2023-02-11T07:52:16.228Z,5.42
2023-02-11T07:54:44.408Z,5.46
2023-02-11T07:57:12.796Z,5.42
2023-02-11T07:59:41.288Z,5.47
2023-02-11T08:02:10.866Z,5.47
2023-02-11T08:04:39.342Z,5.48
2023-02-11T08:07:07.795Z,5.52
2023-02-11T08:09:36.209Z,5.56
2023-02-11T08:12:04.742Z,5.62
2023-02-11T08:14:33.733Z,5.58
2023-02-11T08:17:01.858Z,5.63
2023-02-11T08:19:30.315Z,5.62
2023-02-11T08:21:59.933Z,5.68
2023-02-11T08:24:28.383Z,5.69
2023-02-11T08:26:56.936Z,5.71
2023-02-11T08:29:25.419Z,5.73
2023-02-11T08:31:53.903Z,5.77
2023-02-11T08:34:22.375Z,5.82
2023-02-11T08:36:51.120Z,5.88
2023-02-11T08:39:23.107Z,5.88
2023-02-11T08:41:54.533Z,5.89
2023-02-11T08:44:24.183Z,5.99
2023-02-11T08:46:53.108Z,6.01
2023-02-11T08:49:22.317Z,6.12
2023-02-11T08:51:51.099Z,6.22
2023-02-11T08:54:19.161Z,6.21
2023-02-11T08:56:47.790Z,6.29
2023-02-11T08:59:17.850Z,6.25
2023-02-11T09:01:47.251Z,6.33
2023-02-11T09:04:16.289Z,6.26
2023-02-11T09:06:44.694Z,6.32
2023-02-11T09:09:17.345Z,6.37
2023-02-11T09:11:46.397Z,6.36
2023-02-11T09:14:21.875Z,6.31
2023-02-11T09:16:50.765Z,6.39
2023-02-11T09:19:20.097Z,6.39
2023-02-11T09:21:48.748Z,6.44
2023-02-11T09:24:17.008Z,6.44
2023-02-11T09:26:45.530Z,6.46
2023-02-11T09:29:14.286Z,6.57
2023-02-11T09:31:42.806Z,6.55
2023-02-11T09:34:12.822Z,6.60
2023-02-11T09:36:41.932Z,6.64
2023-02-11T09:39:16.913Z,6.61
2023-02-11T09:42:43.327Z,6.65
2023-02-11T09:45:21.247Z,6.74
2023-02-11T09:48:06.270Z,6.80
2023-02-11T09:50:43.076Z,6.89
2023-02-11T09:53:30.766Z,6.85
2023-02-11T09:56:02.662Z,6.86
2023-02-11T09:58:31.597Z,6.95
2023-02-11T10:01:00.018Z,6.99
2023-02-11T10:04:07.374Z,7.16
2023-02-11T10:06:53.234Z,7.18
2023-02-11T10:10:03.525Z,7.17
2023-02-11T10:12:51.221Z,7.19
2023-02-11T10:15:22.501Z,7.20
2023-02-11T10:18:23.964Z,7.18
2023-02-11T10:21:34.273Z,7.21
2023-02-11T10:24:07.181Z,7.21
2023-02-11T10:26:38.521Z,7.22
2023-02-11T10:29:37.993Z,7.31
2023-02-11T10:32:41.764Z,7.31
2023-02-11T10:35:28.284Z,7.31
2023-02-11T10:37:57.041Z,7.39
2023-02-11T10:40:32.386Z,7.33
2023-02-11T10:43:05.833Z,7.36
2023-02-11T10:45:44.372Z,7.43
2023-02-11T10:48:49.491Z,7.46
2023-02-11T10:51:31.574Z,7.50
2023-02-11T10:54:05.586Z,7.44
2023-02-11T10:56:46.233Z,7.44
2023-02-11T10:59:40.439Z,7.38
2023-02-11T11:02:34.460Z,7.41
2023-02-11T11:05:18.718Z,7.42
2023-02-11T11:08:01.798Z,7.42
2023-02-11T11:10:44.418Z,7.33
2023-02-11T11:13:34.224Z,7.38
2023-02-11T11:16:10.177Z,7.33
2023-02-11T11:18:39.087Z,7.33
2023-02-11T11:21:24.689Z,7.20
2023-02-11T11:24:00.781Z,7.30
2023-02-11T11:26:44.939Z,7.32
2023-02-11T11:29:29.238Z,7.43
2023-02-11T11:32:26.487Z,7.48
2023-02-11T11:34:58.433Z,7.53
2023-02-11T11:37:36.738Z,7.43
2023-02-11T11:40:16.962Z,7.47
2023-02-11T11:42:45.252Z,7.48
2023-02-11T11:45:19.652Z,7.53
2023-02-11T11:48:20.886Z,7.55
2023-02-11T11:50:51.579Z,7.58
2023-02-11T11:53:42.933Z,7.64
2023-02-11T11:56:25.535Z,7.63
2023-02-11T11:58:55.265Z,7.67
2023-02-11T12:01:54.088Z,7.68
2023-02-11T12:04:34.925Z,7.62
2023-02-11T12:07:47.258Z,7.59
2023-02-11T12:11:16.626Z,7.56
2023-02-11T12:14:22.608Z,7.61
2023-02-11T12:17:03.889Z,7.62
2023-02-11T12:19:48.656Z,7.64
2023-02-11T12:22:37.955Z,7.67
2023-02-11T12:25:05.975Z,7.68
2023-02-11T12:28:01.733Z,7.74
2023-02-11T12:30:47.360Z,7.74
2023-02-11T12:33:27.655Z,7.67
2023-02-11T12:36:40.830Z,7.61
2023-02-11T12:39:21.031Z,7.57
2023-02-11T12:42:33.053Z,7.51
2023-02-11T12:45:13.090Z,7.54
2023-02-11T12:48:06.197Z,7.54
2023-02-11T12:51:14.459Z,7.61
2023-02-11T12:53:54.786Z,7.65
2023-02-11T12:56:30.829Z,7.65
2023-02-11T12:59:02.084Z,7.63
2023-02-11T13:01:41.137Z,7.71
2023-02-11T13:04:40.206Z,7.66
2023-02-11T13:07:24.520Z,7.64
2023-02-11T13:10:25.942Z,7.64
2023-02-11T13:13:14.333Z,7.62
2023-02-11T13:15:57.517Z,7.66
2023-02-11T13:18:50.944Z,7.64
2023-02-11T13:21:47.923Z,7.64
2023-02-11T13:25:09.430Z,7.58
2023-02-11T13:27:50.529Z,7.61
2023-02-11T13:30:34.150Z,7.58
2023-02-11T13:33:02.503Z,7.53
2023-02-11T13:35:43.251Z,7.62
2023-02-11T13:38:29.203Z,7.68
2023-02-11T13:41:03.136Z,7.70
2023-02-11T13:43:33.988Z,7.63
2023-02-11T13:46:22.963Z,7.70
2023-02-11T13:48:54.443Z,7.65
2023-02-11T13:51:52.612Z,7.63
2023-02-11T13:54:30.316Z,7.56
2023-02-11T13:57:38.904Z,7.55
2023-02-11T14:00:36.183Z,7.62
2023-02-11T14:03:33.137Z,7.59
2023-02-11T14:06:27.049Z,7.54
2023-02-11T14:09:15.904Z,7.52
2023-02-11T14:11:55.425Z,7.52
2023-02-11T14:14:34.977Z,7.54
2023-02-11T14:17:09.357Z,7.53
2023-02-11T14:19:47.282Z,7.52
2023-02-11T14:22:19.743Z,7.59
2023-02-11T14:25:04.718Z,7.56
2023-02-11T14:27:44.641Z,7.57
2023-02-11T14:30:42.825Z,7.58
2023-02-11T14:33:53.733Z,7.56
2023-02-11T14:36:31.892Z,7.56
2023-02-11T14:39:45.987Z,7.55
2023-02-11T14:42:22.474Z,7.54
2023-02-11T14:44:52.465Z,7.52
2023-02-11T14:47:29.938Z,7.53
2023-02-11T14:49:58.363Z,7.50
2023-02-11T14:52:31.380Z,7.49
2023-02-11T14:55:24.722Z,7.49
2023-02-11T14:58:14.348Z,7.49
2023-02-11T15:01:00.132Z,7.54
2023-02-11T15:03:39.738Z,7.56
2023-02-11T15:06:21.020Z,7.65
2023-02-11T15:09:20.044Z,7.69
2023-02-11T15:11:52.513Z,7.69
2023-02-11T15:14:25.042Z,7.74
2023-02-11T15:16:56.534Z,7.74
2023-02-11T15:19:27.605Z,7.73
2023-02-11T15:21:56.952Z,7.71
2023-02-11T15:24:32.014Z,7.74
2023-02-11T15:27:18.556Z,7.74
2023-02-11T15:29:51.060Z,7.75
2023-02-11T15:32:26.773Z,7.70
2023-02-11T15:34:57.388Z,7.68
2023-02-11T15:37:30.174Z,7.67
2023-02-11T15:40:19.978Z,7.69
2023-02-11T15:43:06.069Z,7.72
2023-02-11T15:45:44.156Z,7.71
2023-02-11T15:48:18.639Z,7.71
2023-02-11T15:50:54.733Z,7.74
2023-02-11T15:53:32.793Z,7.69
2023-02-11T15:56:13.791Z,7.64
2023-02-11T15:58:45.470Z,7.63
2023-02-11T16:01:14.204Z,7.59
2023-02-11T16:03:44.374Z,7.61
2023-02-11T16:06:17.089Z,7.62
2023-02-11T16:08:57.345Z,7.64
2023-02-11T16:11:48.686Z,7.66
2023-02-11T16:14:30.594Z,7.67
2023-02-11T16:17:13.731Z,7.66
2023-02-11T16:19:50.910Z,7.66
2023-02-11T16:22:35.377Z,7.65
2023-02-11T16:25:03.624Z,7.67
2023-02-11T16:27:43.134Z,7.66
2023-02-11T16:30:30.651Z,7.66
2023-02-11T16:32:59.087Z,7.67
2023-02-11T16:35:27.148Z,7.66
2023-02-11T16:37:55.576Z,7.63
2023-02-11T16:40:24.197Z,7.65
2023-02-11T16:42:53.463Z,7.67
2023-02-11T16:45:21.998Z,7.69
2023-02-11T16:47:50.049Z,7.68
2023-02-11T16:50:25.537Z,7.67
2023-02-11T16:52:54.372Z,7.64
2023-02-11T16:55:22.836Z,7.65
2023-02-11T16:57:51.294Z,7.66
2023-02-11T17:00:19.888Z,7.67
2023-02-11T17:02:48.042Z,7.74
2023-02-11T17:05:23.378Z,7.75
2023-02-11T17:07:51.467Z,7.76
2023-02-11T17:10:23.920Z,7.78
2023-02-11T17:12:53.406Z,7.75
2023-02-11T17:15:21.829Z,7.73
2023-02-11T17:17:50.244Z,7.72
2023-02-11T17:20:18.635Z,7.72
2023-02-11T17:22:47.112Z,7.70
2023-02-11T17:25:15.564Z,7.69
2023-02-11T17:27:43.943Z,7.73
2023-02-11T17:30:14.183Z,7.70
2023-02-11T17:32:42.995Z,7.71
2023-02-11T17:35:11.045Z,7.66
2023-02-11T17:37:39.531Z,7.64
2023-02-11T17:40:09.583Z,7.65
2023-02-11T17:42:38.036Z,7.72
2023-02-11T17:45:07.201Z,7.67
2023-02-11T17:47:35.732Z,7.61
2023-02-11T17:50:04.334Z,7.60
2023-02-11T17:52:32.727Z,7.53
2023-02-11T17:55:01.212Z,7.50
2023-02-11T17:57:29.702Z,7.48
2023-02-11T17:59:58.225Z,7.45
2023-02-11T18:02:26.486Z,7.42
2023-02-11T18:04:57.496Z,7.49
2023-02-11T18:07:26.604Z,7.47
2023-02-11T18:09:54.866Z,7.38
2023-02-11T18:12:26.319Z,7.35
2023-02-11T18:14:57.992Z,7.27
2023-02-11T18:17:26.875Z,7.23
2023-02-11T18:19:59.225Z,7.20
2023-02-11T18:22:27.986Z,7.18
2023-02-11T18:24:56.742Z,7.12
2023-02-11T18:27:25.150Z,7.04
2023-02-11T18:29:53.642Z,7.07
2023-02-11T18:32:22.107Z,7.03
2023-02-11T18:34:50.591Z,6.99
2023-02-11T18:37:19.917Z,6.96
2023-02-11T18:39:48.032Z,6.93
2023-02-11T18:42:16.094Z,6.91
2023-02-11T18:44:44.503Z,6.89
2023-02-11T18:47:13.030Z,6.83
2023-02-11T18:49:41.443Z,6.75
2023-02-11T18:52:09.886Z,6.78
2023-02-11T18:54:38.327Z,6.77
2023-02-11T18:57:06.741Z,6.80
2023-02-11T18:59:35.203Z,6.73
2023-02-11T19:02:03.616Z,6.76
2023-02-11T19:04:32.101Z,6.75
2023-02-11T19:07:03.177Z,6.76
2023-02-11T19:09:31.802Z,6.71
2023-02-11T19:12:01.876Z,6.71
2023-02-11T19:14:34.910Z,6.70
2023-02-11T19:17:10.740Z,6.71
2023-02-11T19:19:40.872Z,6.66
2023-02-11T19:22:10.807Z,6.66
2023-02-11T19:24:39.756Z,6.66
2023-02-11T19:27:08.288Z,6.65
2023-02-11T19:29:36.780Z,6.69
2023-02-11T19:32:07.075Z,6.70
2023-02-11T19:34:41.202Z,6.70
2023-02-11T19:37:12.526Z,6.73
2023-02-11T19:39:42.583Z,6.73
2023-02-11T19:42:10.973Z,6.76
2023-02-11T19:44:39.410Z,6.79
2023-02-11T19:47:07.982Z,6.80
2023-02-11T19:49:36.072Z,6.80
2023-02-11T19:52:04.249Z,6.82
2023-02-11T19:54:32.452Z,6.84
2023-02-11T19:57:00.652Z,6.87
2023-02-11T19:59:29.074Z,6.89
2023-02-11T20:01:57.702Z,6.87
2023-02-11T20:04:25.842Z,6.84
2023-02-11T20:06:54.107Z,6.83
2023-02-11T20:09:22.835Z,6.80
2023-02-11T20:11:51.281Z,6.82
2023-02-11T20:14:19.797Z,6.84
2023-02-11T20:16:50.010Z,6.82
2023-02-11T20:19:22.065Z,6.82
2023-02-11T20:21:55.773Z,6.82
2023-02-11T20:24:25.296Z,6.87
2023-02-11T20:26:55.861Z,6.86
2023-02-11T20:29:25.544Z,6.89
2023-02-11T20:31:53.877Z,6.87
2023-02-11T20:34:22.499Z,6.85
2023-02-11T20:36:52.812Z,6.81
2023-02-11T20:39:23.453Z,6.78
2023-02-11T20:41:53.665Z,6.78
2023-02-11T20:44:22.875Z,6.79
2023-02-11T20:46:54.364Z,6.78
2023-02-11T20:49:26.908Z,6.76
2023-02-11T20:51:55.608Z,6.75
2023-02-11T20:54:25.993Z,6.75
2023-02-11T20:56:55.974Z,6.73
2023-02-11T20:59:24.309Z,6.76
2023-02-11T21:01:56.402Z,6.73
2023-02-11T21:04:30.626Z,6.75
2023-02-11T21:07:02.369Z,6.77
2023-02-11T21:09:33.787Z,6.77
2023-02-11T21:12:03.287Z,6.79
2023-02-11T21:14:31.956Z,6.83
2023-02-11T21:17:00.494Z,6.81
2023-02-11T21:19:28.930Z,6.86
2023-02-11T21:22:00.525Z,6.84
2023-02-11T21:24:28.834Z,6.86
2023-02-11T21:26:57.436Z,6.86
2023-02-11T21:29:26.086Z,6.87
2023-02-11T21:31:54.505Z,6.89
2023-02-11T21:34:22.896Z,6.86
2023-02-11T21:36:52.258Z,6.84
2023-02-11T21:39:21.134Z,6.81
2023-02-11T21:41:49.737Z,6.82
2023-02-11T21:44:18.267Z,6.82
2023-02-11T21:46:46.514Z,6.83
2023-02-11T21:49:15.015Z,6.83
2023-02-11T21:51:43.050Z,6.85
2023-02-11T21:54:12.966Z,6.90
2023-02-11T21:56:41.561Z,6.79
2023-02-11T21:59:13.622Z,6.85
2023-02-11T22:01:42.894Z,6.86
2023-02-11T22:04:11.568Z,6.87
2023-02-11T22:06:40.209Z,6.90
2023-02-11T22:09:10.828Z,6.88
2023-02-11T22:11:38.877Z,6.88
2023-02-11T22:14:07.386Z,6.90
2023-02-11T22:16:35.824Z,6.91
2023-02-11T22:19:06.002Z,6.90
2023-02-11T22:21:34.179Z,6.89
2023-02-11T22:24:02.255Z,6.89
2023-02-11T22:26:30.273Z,6.92
2023-02-11T22:28:59.196Z,6.91
2023-02-11T22:31:34.204Z,6.93
2023-02-11T22:34:04.537Z,6.95
2023-02-11T22:36:38.293Z,6.95
2023-02-11T22:39:14.219Z,6.94
2023-02-11T22:41:44.231Z,6.96
2023-02-11T22:44:12.684Z,6.97
2023-02-11T22:46:41.558Z,6.99
2023-02-11T22:49:10.970Z,6.97
2023-02-11T22:51:40.252Z,7.00
2023-02-11T22:54:13.121Z,7.00
2023-02-11T22:56:41.595Z,7.01
2023-02-11T22:59:14.449Z,6.97
2023-02-11T23:01:43.469Z,7.00
2023-02-11T23:04:15.868Z,6.98
2023-02-11T23:06:44.365Z,6.99
2023-02-11T23:09:13.446Z,7.02
2023-02-11T23:11:42.163Z,7.03
2023-02-11T23:14:12.214Z,7.03
2023-02-11T23:16:40.612Z,7.02
2023-02-11T23:19:10.340Z,7.03
2023-02-11T23:21:40.656Z,7.01
2023-02-11T23:24:14.729Z,7.01
2023-02-11T23:26:44.925Z,7.00
2023-02-11T23:29:13.798Z,7.01
2023-02-11T23:31:46.071Z,7.02
2023-02-11T23:34:17.183Z,7.03
2023-02-11T23:36:45.853Z,7.00
2023-02-11T23:39:17.124Z,6.99
2023-02-11T23:41:46.315Z,7.01
2023-02-11T23:44:14.743Z,7.02
2023-02-11T23:46:43.124Z,7.02
2023-02-11T23:49:11.270Z,7.00
2023-02-11T23:51:39.663Z,6.99
2023-02-11T23:54:08.038Z,6.98
2023-02-11T23:56:37.524Z,6.98
2023-02-11T23:59:06.845Z,6.97
